Home > Products > Valid Products > TAF

000
FTUS41 KBTV 182320
TAFMPV
TAF
KMPV 182320Z 1900/1924 30008KT 6SM -SHSN BR OVC012
      TEMPO 1900/1904 OVC009
     FM190400 31007KT P6SM -SHSN OVC012
      TEMPO 1904/1908 OVC009
     FM191200 32007KT P6SM OVC012=



000
FTUS41 KBTV 182320
TAFMSS
TAF
KMSS 182320Z 1900/1924 28009KT P6SM OVC015
     FM191200 25007KT P6SM OVC020=



000
FTUS41 KBTV 182320
TAFBTV
TAF
KBTV 182320Z 1900/1924 32008KT P6SM -SHSN OVC020
     FM190600 34005KT P6SM OVC020=



000
FTUS41 KBTV 182320
TAFSLK
TAF
KSLK 182320Z 1900/1924 29004KT 6SM -SHSN BR OVC010
      TEMPO 1900/1904 3SM -SN BR OVC007
     FM190400 26005KT 6SM -SHSN BR OVC007
     FM191200 30004KT P6SM OVC007=



000
FTUS41 KBTV 182232 AAB
TAFSLK
TAF AMD
KSLK 182232Z 1823/1918 29008G18KT 6SM -SHSN BR OVC007
      TEMPO 1823/1903 3SM -SN BR
     FM190300 29008KT 6SM -SHSN BR OVC007
     FM191300 29006KT P6SM VCSH SCT015 BKN023 OVC030=



000
FTUS41 KBTV 182230 AAA
TAFMPV
TAF AMD
KMPV 182230Z 1823/1918 32011G20KT P6SM VCSH OVC012
      TEMPO 1823/1903 OVC009
     FM190600 32006KT 5SM BR VCSH SCT012 BKN028 OVC030
     FM191300 33010KT P6SM BKN035=



000
FTUS41 KBTV 182228 AAB
TAFBTV
TAF AMD
KBTV 182228Z 1822/1918 31010KT P6SM VCSH OVC020
     FM191200 34006KT P6SM SCT035 BKN045=



000
FTUS41 KBTV 181936 AAA
TAFSLK
TAF AMD
KSLK 181936Z 1820/1918 29008G18KT P6SM VCSH SCT015 BKN020 OVC030
      TEMPO 1820/1824 3SM -SN BR BKN008 OVC015
     FM190200 29008KT 4SM -SN BR SCT008 OVC015
     FM191300 29006KT 4SM BR VCSH SCT015 BKN023 OVC030=



000
FTUS41 KBTV 181722
TAFSLK
TAF
KSLK 181722Z 1818/1918 29008G18KT P6SM VCSH SCT015 BKN020 OVC030
      TEMPO 1818/1822 2SM -SN BR BKN012 OVC020
     FM190200 29008KT 3SM -SN BR SCT008 OVC015
     FM191300 29006KT 4SM BR VCSH SCT015 BKN023 OVC030=



000
FTUS41 KBTV 181722
TAFMPV
TAF
KMPV 181722Z 1818/1918 32011G20KT P6SM VCSH BKN025 OVC040
      TEMPO 1818/1822 3SM -SHSN BR OVC015
     FM190600 32006KT 5SM BR VCSH SCT012 BKN028 OVC030
     FM191300 33010KT P6SM BKN035=



000
FTUS41 KBTV 181722
TAFMSS
TAF
KMSS 181722Z 1818/1918 29010KT P6SM VCSH BKN010 OVC015
     FM190600 29007KT P6SM OVC020
     FM191000 28006KT P6SM SCT025 BKN035=



000
FTUS41 KBTV 181722
TAFBTV
TAF
KBTV 181722Z 1818/1918 31010KT P6SM VCSH SCT025 OVC035
      TEMPO 1818/1822 30014G24KT P6SM OVC025
     FM191200 34006KT P6SM SCT035 BKN045=



000
FTUS41 KBTV 181507 AAB
TAFBTV
TAF AMD
KBTV 181507Z 1815/1912 30006KT P6SM -SHSN FEW007 SCT024 BKN035
      TEMPO 1815/1817 2SM -SHSN BR OVC012
     FM181800 32008KT P6SM VCSH OVC020=



000
FTUS41 KBTV 181505 AAA
TAFMSS
TAF AMD
KMSS 181505Z 1815/1912 27012KT 5SM -SHSN BR SCT008 BKN015 OVC020
      TEMPO 1815/1818 2SM -SN BR OVC008
     FM181800 28010KT P6SM VCSH OVC015
     FM190600 27007KT P6SM OVC020=



000
FTUS41 KBTV 181503 AAA
TAFSLK
TAF AMD
KSLK 181503Z 1815/1912 27008KT 2SM -SN BR OVC008
      TEMPO 1815/1818 4SM BR BKN012 OVC015
     FM190000 27004KT 3SM -SN BR OVC008=



000
FTUS41 KBTV 181135
TAFMPV
TAF
KMPV 181135Z 1812/1912 31010KT 4SM -SHSN BR SCT008 OVC020
      TEMPO 1812/1815 2SM -SHSN BR BKN008
     FM181500 32010KT 2SM -SHSN BR SCT008 OVC012
     FM190600 32006KT 3SM -SHSN BR OVC012=



000
FTUS41 KBTV 181135
TAFBTV
TAF
KBTV 181135Z 1812/1912 31006KT 5SM -SHSN BR SCT007 OVC012
      TEMPO 1812/1816 2SM -SHSN BR OVC007
     FM181800 32008KT P6SM VCSH OVC020=



000
FTUS41 KBTV 181135
TAFSLK
TAF
KSLK 181135Z 1812/1912 27010KT P6SM VCSH OVC015
      TEMPO 1812/1814 3SM -SHSN BR
     FM181400 27008KT 2SM -SN BR OVC008
     FM190000 27004KT 3SM -SN BR OVC008=



000
FTUS41 KBTV 181135
TAFMSS
TAF
KMSS 181135Z 1812/1912 26011KT 5SM -SHSN BR OVC008
      TEMPO 1812/1814 2SM -SN BR OVC011
     FM181800 28010KT P6SM VCSH OVC015
     FM190600 27007KT P6SM OVC020=



000
FTUS41 KBTV 181104 AAB
TAFSLK
TAF AMD
KSLK 181104Z 1811/1906 27010KT P6SM VCSH OVC015
      TEMPO 1811/1812 3SM -SN BR
     FM181200 27010KT 5SM -SHSN OVC015
      TEMPO 1812/1814 2SM -SHSN BR BKN008
     FM181400 27006KT 2SM -SN BR OVC008
     FM190000 27004KT 3SM -SN BR OVC008=



000
FTUS41 KBTV 181104 AAB
TAFSLK
TAF AMD
KSLK 181104Z 1811/1906 27010KT P6SM VCSH OVC015
      TEMPO 1811/1812 3SM -SN BR
     FM181200 27010KT 5SM -SHSN OVC015
      TEMPO 1812/1814 2SM -SHSN BR BKN008
     FM181400 27006KT 2SM -SN BR OVC008
     FM190000 27004KT 3SM -SN BR OVC008=



000
FTUS41 KBTV 181009 AAB
TAFMPV
TAF AMD
KMPV 181009Z 1810/1906 31010G17KT 5SM -SHSN SCT012 OVC025
      TEMPO 1810/1812 2SM -SHSN BR BKN012
     FM181200 32008KT 2SM -SHSN BR OVC012=



000
FTUS41 KBTV 181007 AAA
TAFMSS
TAF AMD
KMSS 181007Z 1810/1906 25007KT 4SM -SHSN BR OVC008
      TEMPO 1810/1812 2SM -SN BR OVC011
     FM181500 29010KT P6SM VCSH OVC015=



000
FTUS41 KBTV 181003 AAA
TAFSLK
TAF AMD
KSLK 181003Z 1810/1906 27010KT P6SM VCSH OVC015
      TEMPO 1810/1811 3SM -SN BR
     FM181100 27010KT 5SM -SHSN OVC015
      TEMPO 1811/1812 2SM -SHSN BR BKN008
     FM181200 27006KT 2SM -SN BR OVC008
     FM190000 27004KT 3SM -SN BR OVC008=



000
FTUS41 KBTV 180814 AAA
TAFMPV
TAF AMD
KMPV 180814Z 1808/1906 30004KT P6SM BKN015 OVC025
      TEMPO 1808/1810 3SM -SHSN BR SCT008 OVC015
     FM181000 29006KT 2SM -SHSN BR OVC012
     FM181200 32006KT 2SM -SHSN BR OVC012=



000
FTUS41 KBTV 180814 AAA
TAFMPV
TAF AMD
KMPV 180814Z 1808/1906 30004KT P6SM BKN015 OVC025
      TEMPO 1808/1810 3SM -SHSN BR SCT008 OVC015
     FM181000 29006KT 2SM -SHSN BR OVC012
     FM181200 32006KT 2SM -SHSN BR OVC012=



000
FTUS41 KBTV 180807 AAB
TAFBTV
TAF AMD
KBTV 180807Z 1808/1906 32004KT 4SM -SHRASN BR SCT009 OVC015
      TEMPO 1808/1810 2SM -SHSN BR BKN008 OVC015
     FM181000 31006KT 2SM -SHSN BR OVC008
     FM181500 32008KT P6SM VCSH OVC020=



000
FTUS41 KBTV 180807 AAB
TAFBTV
TAF AMD
KBTV 180807Z 1808/1906 32004KT 4SM -SHRASN BR SCT009 OVC015
      TEMPO 1808/1810 2SM -SHSN BR BKN008 OVC015
     FM181000 31006KT 2SM -SHSN BR OVC008
     FM181500 32008KT P6SM VCSH OVC020=



000
FTUS41 KBTV 180533
TAFSLK
TAF
KSLK 180533Z 1806/1906 25005KT 1SM -SN BR OVC008
      TEMPO 1806/1810 2SM -SN BR
     FM181200 27006KT 2SM -SN BR OVC008
     FM190000 27004KT 3SM -SN BR OVC008=



000
FTUS41 KBTV 180533
TAFMPV
TAF
KMPV 180533Z 1806/1906 30004KT P6SM BKN025 OVC035
      TEMPO 1806/1807 3SM -SHRASN BR BKN015 OVC025
     FM180700 29006KT 2SM -SHSN BR OVC012
     FM181200 32006KT 2SM -SHSN BR OVC012=



000
FTUS41 KBTV 180533
TAFMSS
TAF
KMSS 180533Z 1806/1906 25007KT 6SM BR VCSH SCT008 OVC015
      TEMPO 1806/1807 3SM -SHSN BR OVC008
     FM180700 25007KT 4SM -SHSN BR OVC008
      TEMPO 1807/1811 2SM -SN BR
     FM181500 29010KT P6SM VCSH OVC015=



000
FTUS41 KBTV 180533
TAFBTV
TAF
KBTV 180533Z 1806/1906 VRB03KT 4SM -RA BR BKN015 OVC035
      TEMPO 1806/1807 1SM -RA BR OVC015
     FM180700 31004KT 5SM -SHRA BR OVC015
      TEMPO 1807/1808 2SM -SHSN BR BKN008 OVC015
     FM180800 31006KT 2SM -SHSN BR OVC008
     FM181500 32008KT P6SM VCSH OVC020=



000
FTUS41 KBTV 180349 AAB
TAFMSS
TAF AMD
KMSS 180349Z 1804/1824 25005KT 6SM BR VCSH SCT008 OVC015
      TEMPO 1804/1805 3SM -SHRASN BR OVC008
     FM180500 25007KT 3SM -SHSN BR OVC008
      TEMPO 1806/1810 2SM -SN BR
     FM181500 29010KT P6SM VCSH OVC015=



000
FTUS41 KBTV 180349 AAB
TAFMSS
TAF AMD
KMSS 180349Z 1804/1824 25005KT 6SM BR VCSH SCT008 OVC015
      TEMPO 1804/1805 3SM -SHRASN BR OVC008
     FM180500 25007KT 3SM -SHSN BR OVC008
      TEMPO 1806/1810 2SM -SN BR
     FM181500 29010KT P6SM VCSH OVC015=



000
FTUS41 KBTV 180136 AAA
TAFMSS
TAF AMD
KMSS 180136Z 1802/1824 25005KT 6SM BR VCSH OVC008
      TEMPO 1802/1804 3SM -SHRASN BR OVC004
     FM180400 25007KT 3SM -SHSN BR OVC008
      TEMPO 1806/1810 2SM -SN BR
     FM181500 29010KT P6SM VCSH OVC015=



000
FTUS41 KBTV 180136 AAA
TAFMSS
TAF AMD
KMSS 180136Z 1802/1824 25005KT 6SM BR VCSH OVC008
      TEMPO 1802/1804 3SM -SHRASN BR OVC004
     FM180400 25007KT 3SM -SHSN BR OVC008
      TEMPO 1806/1810 2SM -SN BR
     FM181500 29010KT P6SM VCSH OVC015=



000
FTUS41 KBTV 172322
TAFBTV
TAF
KBTV 172322Z 1800/1824 VRB03KT P6SM VCSH BKN025 OVC035
     FM180700 31006KT 2SM -SHSN BR OVC008
     FM181500 32008KT P6SM VCSH OVC020=



000
FTUS41 KBTV 172322
TAFSLK
TAF
KSLK 172322Z 1800/1824 25005KT 2SM -SN BR OVC008
      TEMPO 1805/1809 1SM -SN BR
     FM181200 27006KT 2SM -SN BR OVC008=



000
FTUS41 KBTV 172322
TAFMPV
TAF
KMPV 172322Z 1800/1824 VRB03KT 4SM BR VCSH BKN015 OVC035
     FM180600 29006KT 2SM -SHSN BR OVC012
     FM181200 32006KT 2SM -SHSN BR OVC012=



000
FTUS41 KBTV 172322
TAFMSS
TAF
KMSS 172322Z 1800/1824 25005KT 6SM BR VCSH SCT008 OVC012
      TEMPO 1800/1804 3SM -SHSN BR OVC008
     FM180400 25007KT 3SM -SHSN BR OVC008
      TEMPO 1806/1810 2SM -SN BR
     FM181500 29010KT P6SM VCSH OVC015=



000
FTUS41 KBTV 172117 AAA
TAFMSS
TAF AMD
KMSS 172117Z 1721/1818 24006KT P6SM VCSH SCT008 OVC020
      TEMPO 1721/1724 2SM -RA BR OVC006
     FM180600 26007KT 3SM BR VCSH SCT020 OVC025
     FM181400 29008KT P6SM SCT025 OVC035=



000
FTUS41 KBTV 172108 AAA
TAFMPV
TAF AMD
KMPV 172108Z 1721/1818 31004KT 4SM BR VCSH OVC010
      TEMPO 1721/1724 1/2SM -RA FG BKN005 OVC012
     FM180100 29006KT 6SM -SHSN BR OVC010
     FM181400 32006KT P6SM VCSH SCT010 BKN015=



000
FTUS41 KBTV 172006 AAB
TAFBTV
TAF AMD
KBTV 172006Z 1720/1818 VRB04KT 3SM -RA BR BKN004 OVC015
      TEMPO 1720/1724 1/2SM -RA FG SCT005 OVC015
     FM180200 33006KT 6SM BR VCSH SCT015 OVC020
     FM180500 33007KT 3SM -SHSN BR SCT008 OVC015
     FM181300 34008KT 5SM BR VCSH BKN015 OVC020=



000
FTUS41 KBTV 171726
TAFSLK
TAF
KSLK 171726Z 1718/1818 23005KT 3SM BR VCSH SCT003 BKN009 OVC020
      TEMPO 1718/1722 1/2SM -SHRA FG OVC003
     FM180100 26006KT 4SM BR VCSH BKN012 OVC020
     FM180900 28006KT 2SM BR VCSH BKN020 OVC030=



000
FTUS41 KBTV 171726
TAFMPV
TAF
KMPV 171726Z 1718/1818 VRB02KT 1SM -RASN BR SCT007 BKN015 OVC020
      TEMPO 1718/1721 1/4SM -RASNPL FG BKN002 OVC008
     FM172100 31004KT P6SM VCSH OVC010
     FM180100 29006KT 6SM -SHSN BR OVC010
     FM181400 32006KT P6SM VCSH SCT010 BKN015=



000
FTUS41 KBTV 171726
TAFMSS
TAF
KMSS 171726Z 1718/1818 22007KT P6SM OVC025
      TEMPO 1718/1721 08004KT 1SM BR BKN002 OVC009
     FM172100 25006KT P6SM VCSH OVC020
     FM180600 26007KT 3SM BR VCSH SCT020 OVC025
     FM181400 29008KT P6SM SCT025 OVC035=



000
FTUS41 KBTV 171726
TAFBTV
TAF
KBTV 171726Z 1718/1818 VRB04KT 3SM -RA BR BKN004 OVC015
      TEMPO 1718/1722 1SM -RA BR SCT005 OVC015
     FM180200 33006KT 6SM BR VCSH SCT015 OVC020
     FM180500 33007KT 3SM -SHSN BR SCT008 OVC015
     FM181300 34008KT 5SM BR VCSH BKN015 OVC020=



000
FTUS41 KBTV 171351 AAC
TAFBTV
TAF AMD
KBTV 171351Z 1714/1812 18006KT 3SM -RA BR SCT007 OVC015
      TEMPO 1714/1718 1SM -RA BR OVC007
     FM180200 33006KT P6SM VCSH OVC020
     FM180500 33007KT 3SM -SHSN BR OVC015=



000
FTUS41 KBTV 171143 AAB
TAFSLK
TAF AMD
KSLK 171143Z 1712/1812 VRB04KT P6SM VCSH OVC010
      TEMPO 1712/1716 4SM -SHSN BR OVC006
     FM171800 23005KT P6SM VCSH OVC020
     FM180100 28006KT P6SM VCSH OVC020=



000
FTUS41 KBTV 171142 AAA
TAFSLK
TAF AMD
KSLK 171142Z 1712/1812 VRB04KT P6SM VCSH OVC010
     FM171800 23005KT P6SM VCSH OVC020
     FM180100 28006KT P6SM VCSH OVC020=



000
FTUS41 KBTV 171141 AAA
TAFMSS
TAF AMD
KMSS 171141Z 1712/1812 07006KT 2SM BR OVC005
     FM171800 22007KT P6SM OVC025
     FM172100 25006KT P6SM VCSH OVC020=



000
FTUS41 KBTV 171140
TAFBTV
TAF
KBTV 171140Z 1712/1812 18006KT P6SM VCSH OVC015
     FM180200 33006KT P6SM VCSH OVC020=



000
FTUS41 KBTV 171140
TAFSLK
TAF
KSLK 171140Z 1712/1812 VRB04KT P6SM VCSH OVC010
     FM171800 23005KT P6SM VCSH OVC020=



000
FTUS41 KBTV 171140
TAFMPV
TAF
KMPV 171140Z 1712/1812 18006KT P6SM VCSH OVC010
      TEMPO 1712/1716 1/2SM FZRAPL FG OVC020
     FM180100 29006KT P6SM VCSH OVC010=



000
FTUS41 KBTV 171140
TAFMSS
TAF
KMSS 171140Z 1712/1812 07006KT 2SM BR OVC005
     FM171800 22007KT P6SM OVC025=



000
FTUS41 KBTV 171004 AAB
TAFMPV
TAF AMD
KMPV 171004Z 1710/1806 18006KT P6SM VCSH OVC010
      TEMPO 1710/1712 1/2SM -RA FG OVC004
     FM171300 17005KT P6SM VCSH OVC010=



000
FTUS41 KBTV 171004 AAB
TAFMPV
TAF AMD
KMPV 171004Z 1710/1806 18006KT P6SM VCSH OVC010
      TEMPO 1710/1712 1/2SM -RA FG OVC004
     FM171300 17005KT P6SM VCSH OVC010=



000
FTUS41 KBTV 170855 AAA
TAFMPV
TAF AMD
KMPV 170855Z 1709/1806 18006KT P6SM VCSH OVC010
      TEMPO 1709/1712 3SM -RA BR OVC004
     FM171300 17005KT P6SM VCSH OVC010=



000
FTUS41 KBTV 170855 AAA
TAFMPV
TAF AMD
KMPV 170855Z 1709/1806 18006KT P6SM VCSH OVC010
      TEMPO 1709/1712 3SM -RA BR OVC004
     FM171300 17005KT P6SM VCSH OVC010=



000
FTUS41 KBTV 170854 AAA
TAFSLK
TAF AMD
KSLK 170854Z 1709/1806 VRB03KT P6SM VCSH OVC015
      TEMPO 1709/1712 4SM -SN BR OVC008
     FM171200 VRB04KT P6SM VCSH OVC020
     FM171800 23005KT P6SM VCSH OVC020=



000
FTUS41 KBTV 170854 AAA
TAFMSS
TAF AMD
KMSS 170854Z 1709/1806 07007KT P6SM VCSH OVC015
      TEMPO 1709/1712 2SM -FZRA BR OVC003
     FM171200 07010KT P6SM VCSH OVC020
     FM171800 22007KT P6SM OVC025=



000
FTUS41 KBTV 170854 AAA
TAFMSS
TAF AMD
KMSS 170854Z 1709/1806 07007KT P6SM VCSH OVC015
      TEMPO 1709/1712 2SM -FZRA BR OVC003
     FM171200 07010KT P6SM VCSH OVC020
     FM171800 22007KT P6SM OVC025=



000
FTUS41 KBTV 170854 AAA
TAFSLK
TAF AMD
KSLK 170854Z 1709/1806 VRB03KT P6SM VCSH OVC015
      TEMPO 1709/1712 4SM -SN BR OVC008
     FM171200 VRB04KT P6SM VCSH OVC020
     FM171800 23005KT P6SM VCSH OVC020=



000
FTUS41 KBTV 170533
TAFMPV
TAF
KMPV 170533Z 1706/1806 18006KT P6SM VCSH OVC006
      TEMPO 1706/1708 3SM -RA BR OVC004
     FM171300 17005KT P6SM VCSH OVC010=



000
FTUS41 KBTV 170533
TAFBTV
TAF
KBTV 170533Z 1706/1806 15006KT P6SM VCSH OVC020
      TEMPO 1706/1708 3SM -RA BR OVC010
     FM170800 18006KT P6SM VCSH OVC015=



000
FTUS41 KBTV 170533
TAFMSS
TAF
KMSS 170533Z 1706/1806 07007KT P6SM VCSH OVC015
      TEMPO 1706/1707 2SM -FZRA BR OVC004
     FM170700 07010KT P6SM VCSH OVC020
     FM171800 22007KT P6SM OVC025=



000
FTUS41 KBTV 170533
TAFSLK
TAF
KSLK 170533Z 1706/1806 VRB03KT P6SM VCSH OVC015
      TEMPO 1706/1707 5SM -SN BR OVC010
     FM170700 VRB04KT P6SM VCSH OVC020
     FM171800 23005KT P6SM VCSH OVC020=



000
FTUS41 KBTV 170345 AAB
TAFBTV
TAF AMD
KBTV 170345Z 1704/1724 16005KT P6SM VCSH OVC025
      TEMPO 1704/1708 3SM -RA BR OVC010
     FM170800 18006KT P6SM VCSH OVC015=



000
FTUS41 KBTV 170345 AAB
TAFBTV
TAF AMD
KBTV 170345Z 1704/1724 16005KT P6SM VCSH OVC025
      TEMPO 1704/1708 3SM -RA BR OVC010
     FM170800 18006KT P6SM VCSH OVC015=



000
FTUS41 KBTV 170332 AAA
TAFMPV
TAF AMD
KMPV 170332Z 1704/1724 18006KT P6SM VCSH OVC010
      TEMPO 1704/1708 3SM -RA BR OVC004
     FM171300 17005KT P6SM VCSH OVC010=



000
FTUS41 KBTV 170330 AAA
TAFMSS
TAF AMD
KMSS 170330Z 1703/1724 07007KT P6SM VCSH OVC025
      TEMPO 1703/1707 4SM -FZRA BR OVC006
     FM170700 07010KT P6SM VCSH OVC020
     FM171800 22007KT P6SM OVC025=



000
FTUS41 KBTV 170328 AAA
TAFSLK
TAF AMD
KSLK 170328Z 1703/1724 VRB03KT P6SM VCSH OVC025
      TEMPO 1703/1707 5SM -SN BR OVC015
     FM170700 VRB04KT P6SM VCSH OVC020
     FM171800 23005KT P6SM VCSH OVC020=



000
FTUS41 KBTV 162341
TAFBTV
TAF
KBTV 162341Z 1700/1724 VRB04KT P6SM OVC015
      TEMPO 1700/1704 4SM -RA BR OVC010
     FM170400 18006KT P6SM VCSH OVC015=



000
FTUS41 KBTV 162341
TAFSLK
TAF
KSLK 162341Z 1700/1724 04005KT P6SM VCSH OVC050
      TEMPO 1700/1704 3SM -SN BR OVC020
     FM170400 VRB04KT P6SM VCSH OVC020
     FM171800 23005KT P6SM VCSH OVC020=



000
FTUS41 KBTV 162341
TAFMSS
TAF
KMSS 162341Z 1700/1724 07010KT P6SM VCSH OVC030
      TEMPO 1700/1704 4SM -FZRA BR OVC015
     FM170400 07010KT P6SM VCSH OVC020
     FM171800 22007KT P6SM OVC025=



000
FTUS41 KBTV 162341
TAFMPV
TAF
KMPV 162341Z 1700/1724 VRB04KT 6SM BR OVC010
      TEMPO 1700/1704 2SM -SNPL BR OVC004
     FM170400 VRB03KT 5SM BR VCSH OVC005
     FM171300 17005KT P6SM VCSH OVC010=



000
FTUS41 KBTV 162228 AAB
TAFBTV
TAF AMD
KBTV 162228Z 1622/1718 18005KT P6SM OVC015
      TEMPO 1623/1703 4SM -RA BR OVC010
     FM170300 15008KT 6SM -RA BR OVC020
     FM170900 16005KT 6SM -RA BR OVC015
     FM171500 00000KT 4SM -RA BR OVC015=



000
FTUS41 KBTV 162226 AAA
TAFMPV
TAF AMD
KMPV 162226Z 1622/1718 VRB03KT 5SM BR OVC005
      TEMPO 1622/1624 2SM BR OVC003
     FM170000 16008KT P6SM VCSH OVC009
     FM170300 14008KT 6SM -SNPL BR OVC010
     FM170600 00000KT 1 1/2SM -FZRA OVC007
     FM171200 00000KT 1 1/2SM -RA BR OVC007=



000
FTUS41 KBTV 162223 AAA
TAFMSS
TAF AMD
KMSS 162223Z 1622/1718 06012KT P6SM OVC025
      TEMPO 1622/1702 4SM -FZRA BR OVC008
     FM170200 05005KT 6SM -FZRAPL BR OVC009
     FM170600 08006KT 6SM -RASN BR OVC008
     FM171500 VRB04KT 1 1/2SM -RA BR OVC007=



000
FTUS41 KBTV 162222 AAA
TAFSLK
TAF AMD
KSLK 162222Z 1622/1718 05007KT P6SM OVC100
      TEMPO 1622/1624 3SM -SN BR OVC020
     FM170000 17008KT 6SM -FZRAPL BR OVC004
     FM170700 14006KT 5SM -RASN BR OVC003
     FM171300 00000KT 1/2SM SN FG OVC003=



000
FTUS41 KBTV 162100 AAB
TAFMSS
TAF AMD
KMSS 162112Z 1621/1718 06010KT P6SM OVC020
     FM162200 07006KT 3SM -SN BR OVC015
     FM170100 05005KT 6SM -FZRAPL BR OVC009
     FM170600 08006KT 6SM -RASN BR OVC008
     FM171500 VRB04KT 1 1/2SM -RA BR OVC007=



000
FTUS41 KBTV 162100 AAB
TAFMSS
TAF AMD
KMSS 162112Z 1621/1718 06010KT P6SM OVC020
     FM162200 07006KT 3SM -SN BR OVC015
     FM170100 05005KT 6SM -FZRAPL BR OVC009
     FM170600 08006KT 6SM -RASN BR OVC008
     FM171500 VRB04KT 1 1/2SM -RA BR OVC007=



000
FTUS41 KBTV 162000 AAC
TAFMPV
TAF AMD
KMPV 162054Z 1621/1718 18007KT 2SM BR OVC005
      TEMPO 1621/1623 3SM BR OVC006
     FM170000 16008KT P6SM VCSH OVC009
     FM170300 14008KT 6SM -SNPL BR OVC010
     FM170600 00000KT 1 1/2SM -FZRA OVC007
     FM171200 00000KT 1 1/2SM -RA BR OVC007=



000
FTUS41 KBTV 162000 AAB
TAFMPV
TAF AMD
KMPV 162053Z 1621/1718 18007KT 5SM BR OVC005
      TEMPO 1621/1623 3SM BR OVC006
     FM170000 16008KT P6SM VCSH OVC009
     FM170300 14008KT 6SM -SNPL BR OVC010
     FM170600 00000KT 1 1/2SM -FZRA OVC007
     FM171200 00000KT 1 1/2SM -RA BR OVC007=



000
FTUS41 KBTV 162000 AAA
TAFSLK
TAF AMD
KSLK 162051Z 1621/1718 00000KT P6SM OVC020
     FM162200 17006KT 6SM -FZDZ BR OVC005
     FM170100 17008KT 6SM -FZRAPL BR OVC004
     FM170700 14006KT 5SM -RASN BR OVC003
     FM171300 00000KT 1/2SM SN FG OVC003=



000
FTUS41 KBTV 162000 AAA
TAFMSS
TAF AMD
KMSS 162005Z 1620/1718 06010KT P6SM OVC020
     FM162200 07006KT 3SM -SN BR OVC010
     FM170100 05005KT 6SM -FZRAPL BR OVC009
     FM170600 08006KT 6SM -RASN BR OVC008
     FM171500 VRB04KT 1 1/2SM -RA BR OVC007=



000
FTUS41 KBTV 162000 AAA
TAFMPV
TAF AMD
KMPV 162004Z 1620/1718 18007KT 5SM BR OVC005
     FM170000 16008KT P6SM VCSH OVC009
     FM170300 14008KT 6SM -SNPL BR OVC010
     FM170600 00000KT 1 1/2SM -FZRA OVC007
     FM171200 00000KT 1 1/2SM -RA BR OVC007=



000
FTUS41 KBTV 161700 RRA
TAFMSS
TAF
KMSS 161757Z 1618/1718 06010KT P6SM SCT009 OVC016
     FM162200 07006KT 3SM -SN BR OVC010
     FM170100 05005KT 6SM -FZRAPL BR OVC009
     FM170600 08006KT 6SM -RASN BR OVC008
     FM171500 VRB04KT 1 1/2SM -RA BR OVC007=



000
FTUS41 KBTV 161700 RRA
TAFSLK
TAF
KSLK 161757Z 1618/1718 00000KT P6SM OVC003
     FM162200 17006KT 6SM -FZDZ BR OVC005
     FM170100 17008KT 6SM -FZRAPL BR OVC004
     FM170700 14006KT 5SM -RASN BR OVC003
     FM171300 00000KT 1/2SM SN FG OVC003=



000
FTUS41 KBTV 161700 RRA
TAFMPV
TAF
KMPV 161757Z 1618/1718 18007KT 6SM BR OVC006
     FM170000 16008KT P6SM VCSH OVC009
     FM170300 14008KT 6SM -SNPL BR OVC010
     FM170600 00000KT 1 1/2SM -FZRA OVC007
     FM171200 00000KT 1 1/2SM -RA BR OVC007=



000
FTUS41 KBTV 161700 RRA
TAFBTV
TAF
KBTV 161757Z 1618/1718 17009KT P6SM OVC018
     FM170000 15008KT 6SM -RA BR OVC020
     FM170900 16005KT 6SM -RA BR OVC015
     FM171500 00000KT 4SM -RA BR OVC015=



000
FTUS41 KBTV 161600 AAC
TAFBTV
TAF AMD
KBTV 161604Z 1616/1712 18008KT P6SM OVC020
      TEMPO 1616/1618 OVC017
     FM162300 16008KT P6SM VCSH OVC025
     FM170400 15008KT 6SM -FZRAPL BR OVC020
     FM170900 16005KT 6SM -RASN BR OVC015=



000
FTUS41 KBTV 161600 AAC
TAFBTV
TAF AMD
KBTV 161604Z 1616/1712 18008KT P6SM OVC020
      TEMPO 1616/1618 OVC017
     FM162300 16008KT P6SM VCSH OVC025
     FM170400 15008KT 6SM -FZRAPL BR OVC020
     FM170900 16005KT 6SM -RASN BR OVC015=



000
FTUS41 KBTV 161600 AAC
TAFSLK
TAF AMD
KSLK 161603Z 1616/1712 05004KT P6SM BKN004
     FM162200 17006KT 6SM -FZDZ BR OVC005
     FM170100 17008KT 6SM -FZRAPL BR OVC005
     FM170700 14006KT 6SM -RASN BR OVC010=



000
FTUS41 KBTV 161600 AAC
TAFSLK
TAF AMD
KSLK 161603Z 1616/1712 05004KT P6SM BKN004
     FM162200 17006KT 6SM -FZDZ BR OVC005
     FM170100 17008KT 6SM -FZRAPL BR OVC005
     FM170700 14006KT 6SM -RASN BR OVC010=



000
FTUS41 KBTV 161500 AAB
TAFBTV
TAF AMD
KBTV 161504Z 1615/1712 18008KT P6SM OVC017
     FM162300 16008KT P6SM VCSH OVC025
     FM170400 15008KT 6SM -FZRAPL BR OVC020
     FM170900 16005KT 6SM -RASN BR OVC015=



000
FTUS41 KBTV 161500 AAB
TAFSLK
TAF AMD
KSLK 161504Z 1615/1712 15003KT P6SM OVC003
     FM161600 VRB04KT P6SM OVC008
     FM162200 17006KT 6SM -FZDZ BR OVC004
     FM170100 17008KT 6SM -FZRAPL BR OVC005
     FM170700 14006KT 6SM -RASN BR OVC010=



000
FTUS41 KBTV 161500 AAA
TAFMPV
TAF AMD
KMPV 161504Z 1615/1712 17007KT 6SM BR OVC005
     FM170000 16008KT P6SM VCSH OVC015
     FM170500 14008KT 6SM -FZRAPL BR OVC020
     FM171000 16003KT 6SM -RASN BR OVC015=



000
FTUS41 KBTV 161400 AAA
TAFBTV
TAF AMD
KBTV 161401Z 1614/1712 17006KT P6SM OVC021
     FM162300 16008KT P6SM VCSH OVC025
     FM170400 15008KT 6SM -FZRAPL BR OVC020
     FM170900 16005KT 6SM -RASN BR OVC015=



000
FTUS41 KBTV 161400 AAA
TAFSLK
TAF AMD
KSLK 161400Z 1614/1712 00000KT 3SM BR OVC002
      TEMPO 1614/1616 1/2SM FZFG VV002
     FM161600 VRB04KT P6SM OVC008
     FM162200 17006KT 6SM -FZDZ BR OVC004
     FM170100 17008KT 6SM -FZRAPL BR OVC005
     FM170700 14006KT 6SM -RASN BR OVC010=



000
FTUS41 KBTV 161255 AAA
TAFBTV
TAF AMD
KBTV 161255Z 1613/1712 16007KT P6SM OVC020
     FM161400 17007KT P6SM BKN018 OVC023
     FM162300 16008KT P6SM VCSH OVC025
     FM170400 15008KT 6SM -FZRAPL BR OVC020
     FM170900 16005KT 6SM -RASN BR OVC015=



000
FTUS41 KBTV 161136
TAFSLK
TAF
KSLK 161136Z 1612/1712 VRB03KT 1SM BR OVC002
      TEMPO 1612/1614 1/2SM FZFG VV002
     FM161400 VRB04KT P6SM OVC008
     FM162200 17006KT 6SM -FZDZ BR OVC004
     FM170100 17008KT 6SM -FZRAPL BR OVC005
     FM170700 14006KT 6SM -RASN BR OVC010=



000
FTUS41 KBTV 161136
TAFBTV
TAF
KBTV 161136Z 1612/1712 16007KT P6SM OVC010
     FM161400 17007KT P6SM BKN018 OVC023
     FM162300 16008KT P6SM VCSH OVC025
     FM170400 15008KT 6SM -FZRAPL BR OVC020
     FM170900 16005KT 6SM -RASN BR OVC015=



000
FTUS41 KBTV 161136
TAFMSS
TAF
KMSS 161136Z 1612/1712 10003KT P6SM OVC012
     FM162000 07006KT 6SM -FZDZ BR OVC008
     FM170100 05005KT 6SM -FZRAPL BR OVC010
     FM170800 08006KT 6SM -RASN BR OVC015=



000
FTUS41 KBTV 161136
TAFMPV
TAF
KMPV 161136Z 1612/1712 18006KT P6SM OVC005
     FM161400 13004KT P6SM OVC008
     FM170000 16008KT P6SM VCSH OVC015
     FM170500 14008KT 6SM -FZRAPL BR OVC020
     FM171000 16003KT 6SM -RASN BR OVC015=



000
FTUS41 KBTV 160802 AAA
TAFSLK
TAF AMD
KSLK 160802Z 1608/1706 VRB03KT 2SM BR OVC002
      TEMPO 1608/1612 1/2SM FZFG VV002
     FM161300 VRB04KT P6SM OVC008
     FM162200 17006KT 6SM -FZDZ BR OVC004
     FM170100 17008KT 6SM FZRA BR OVC005=



000
FTUS41 KBTV 160520
TAFMPV
TAF
KMPV 160520Z 1606/1706 VRB04KT 6SM BR OVC005
     FM161400 13004KT P6SM OVC008
     FM170000 16008KT P6SM VCSH OVC015
     FM170500 14008KT 6SM FZRA BR OVC010=



000
FTUS41 KBTV 160520
TAFMSS
TAF
KMSS 160520Z 1606/1706 VRB04KT P6SM OVC012
     FM162000 07006KT 6SM -FZDZ BR OVC008
     FM170100 05005KT 6SM FZRA BR OVC010=



000
FTUS41 KBTV 160520
TAFSLK
TAF
KSLK 160520Z 1606/1706 VRB03KT 2SM BR OVC002
     FM161300 VRB04KT P6SM OVC008
     FM162200 17006KT 6SM -FZDZ BR OVC004
     FM170100 17008KT 6SM FZRA BR OVC005=



000
FTUS41 KBTV 160520
TAFBTV
TAF
KBTV 160520Z 1606/1706 VRB06KT P6SM OVC010
     FM161400 17007KT P6SM BKN018 OVC023
     FM162300 16008KT P6SM VCSH OVC025
     FM170400 15008KT 6SM -FZRA BR OVC020=



    US Dept of Commerce
    National Oceanic and Atmospheric Administration
    National Weather Service
    1325 East West Highway
    Silver Spring, MD 20910
    Page Author: NWS Internet Services Team
Disclaimer
Information Quality
Credits
Glossary
Privacy Policy
Freedom of Information Act (FOIA)
About Us
Career Opportunities